Time;durP1;ratioP1;P1;durP2;ratioP2;P2;SDS_P1;SDS_P2;PMS_P1;PMS_P2;Temp;Humidity;BMP_temperature;BMP_pressure;BME280_temperature;BME280_humidity;BME280_pressure;Samples;Min_cycle;Max_cycle;Signal;HPM_P1;HPM_P2
2021/09/28 00:00:14;;;;;;;3.58;1.27;;;13.70;99.90;;;;;;5054478;28;20048;-78
2021/09/28 00:02:40;;;;;;;1.45;0.70;;;13.60;99.90;;;;;;5055828;28;20029;-80
2021/09/28 00:05:07;;;;;;;2.88;1.00;;;13.60;99.90;;;;;;5039065;28;20032;-78
2021/09/28 00:07:33;;;;;;;1.38;0.85;;;13.50;99.90;;;;;;5056586;28;20033;-78
2021/09/28 00:09:59;;;;;;;1.70;1.10;;;13.50;99.90;;;;;;5056736;28;20044;-79
2021/09/28 00:12:26;;;;;;;4.70;1.00;;;13.40;99.90;;;;;;5056665;28;20051;-79
2021/09/28 00:14:52;;;;;;;2.60;1.25;;;13.40;99.90;;;;;;5057033;28;20039;-79
2021/09/28 00:17:19;;;;;;;2.03;1.17;;;13.40;99.90;;;;;;5055304;28;20036;-79
2021/09/28 00:19:45;;;;;;;2.58;1.33;;;13.50;99.90;;;;;;5035932;28;20125;-79
2021/09/28 00:22:11;;;;;;;5.22;1.42;;;13.40;99.90;;;;;;5054514;28;20040;-79
2021/09/28 00:24:37;;;;;;;2.85;1.45;;;13.40;99.90;;;;;;5064679;28;20032;-79
2021/09/28 00:27:04;;;;;;;2.22;1.40;;;13.30;99.90;;;;;;5054278;28;20045;-79
2021/09/28 00:29:31;;;;;;;2.90;1.50;;;13.20;99.90;;;;;;5053887;28;20036;-79
2021/09/28 00:31:57;;;;;;;2.55;1.40;;;13.30;99.90;;;;;;5054636;28;20025;-79
2021/09/28 00:34:24;;;;;;;6.82;1.52;;;13.20;99.90;;;;;;5054744;28;20025;-79
2021/09/28 00:36:50;;;;;;;5.47;1.58;;;13.20;99.90;;;;;;5042895;28;20060;-80
2021/09/28 00:39:16;;;;;;;1.50;1.40;;;13.20;99.90;;;;;;5054955;28;20045;-79
2021/09/28 00:41:42;;;;;;;5.35;1.98;;;13.20;99.90;;;;;;5064765;28;20405;-79
2021/09/28 00:44:08;;;;;;;3.47;1.63;;;13.20;99.90;;;;;;5068023;28;20474;-80
2021/09/28 00:46:35;;;;;;;5.22;2.08;;;13.10;99.90;;;;;;5036052;28;20037;-79
2021/09/28 00:49:01;;;;;;;1.48;1.35;;;13.10;99.90;;;;;;5054291;28;20033;-79
2021/09/28 00:51:27;;;;;;;3.90;1.77;;;13.10;99.90;;;;;;5053791;28;20390;-78
2021/09/28 00:53:55;;;;;;;6.45;1.98;;;13.10;99.90;;;;;;5045242;28;20045;-79
2021/09/28 00:56:23;;;;;;;2.92;2.10;;;13.00;99.90;;;;;;5053784;28;20037;-79
2021/09/28 00:58:51;;;;;;;4.20;2.13;;;13.00;99.90;;;;;;5053414;28;20033;-79
2021/09/28 01:01:17;;;;;;;7.95;2.97;;;13.00;99.90;;;;;;5053908;28;20040;-79
2021/09/28 01:03:43;;;;;;;5.47;3.88;;;12.90;99.90;;;;;;5035485;28;20029;-79
2021/09/28 01:06:10;;;;;;;5.88;4.43;;;12.90;99.90;;;;;;5036513;28;20048;-79
2021/09/28 01:08:36;;;;;;;6.95;4.10;;;12.80;99.90;;;;;;5053488;28;20052;-79
2021/09/28 01:11:03;;;;;;;5.35;3.63;;;12.80;99.90;;;;;;5053335;28;20096;-79
2021/09/28 01:13:29;;;;;;;5.72;3.63;;;12.80;99.90;;;;;;5053344;28;20038;-79
2021/09/28 01:15:58;;;;;;;4.30;3.33;;;12.80;99.90;;;;;;5053515;28;20033;-79
2021/09/28 01:18:30;;;;;;;4.68;3.47;;;12.70;99.90;;;;;;5051790;28;20052;-80
2021/09/28 01:20:57;;;;;;;4.28;2.88;;;12.70;99.90;;;;;;5053559;28;20044;-79
2021/09/28 01:23:23;;;;;;;4.57;2.90;;;12.70;99.90;;;;;;5051817;28;20045;-79
2021/09/28 01:25:50;;;;;;;6.55;3.03;;;12.60;99.90;;;;;;5052673;28;20454;-78
2021/09/28 01:28:16;;;;;;;3.78;2.60;;;12.60;99.90;;;;;;5053272;28;20044;-79
2021/09/28 01:30:42;;;;;;;4.60;2.95;;;12.70;99.90;;;;;;5052908;28;20112;-79
2021/09/28 01:33:09;;;;;;;5.22;3.30;;;12.60;99.90;;;;;;5053794;28;20147;-80
2021/09/28 01:35:37;;;;;;;5.88;3.35;;;12.60;99.90;;;;;;5055531;28;20044;-79
2021/09/28 01:38:04;;;;;;;9.65;3.60;;;12.60;99.90;;;;;;5053459;28;20033;-79
2021/09/28 01:40:30;;;;;;;5.72;3.67;;;12.60;99.90;;;;;;5052533;28;20025;-78
2021/09/28 01:43:04;;;;;;;5.93;2.75;;;12.60;99.90;;;;;;5051618;28;20056;-79
2021/09/28 01:45:30;;;;;;;5.03;3.22;;;12.50;99.90;;;;;;5052592;28;20479;-78
2021/09/28 01:47:56;;;;;;;4.32;3.10;;;12.60;99.90;;;;;;5052987;28;20040;-79
2021/09/28 01:50:22;;;;;;;4.65;2.55;;;12.60;99.90;;;;;;5052836;28;20471;-79
2021/09/28 01:52:48;;;;;;;8.00;3.50;;;12.60;99.90;;;;;;5052193;28;20032;-79
2021/09/28 01:55:15;;;;;;;4.78;2.85;;;12.50;99.90;;;;;;5052532;28;20470;-79
2021/09/28 01:57:41;;;;;;;8.73;2.70;;;12.50;99.90;;;;;;5049680;28;20040;-79
2021/09/28 02:00:07;;;;;;;7.53;3.00;;;12.50;99.90;;;;;;5052638;28;20043;-80
2021/09/28 02:02:37;;;;;;;6.25;2.65;;;12.40;99.90;;;;;;5052850;28;20087;-80
2021/09/28 02:05:04;;;;;;;13.75;3.33;;;12.40;99.90;;;;;;5051892;28;20048;-81
2021/09/28 02:07:30;;;;;;;4.75;2.92;;;12.30;99.90;;;;;;5051822;28;20033;-79
2021/09/28 02:09:56;;;;;;;13.75;2.90;;;12.20;99.90;;;;;;5048145;28;20029;-80
2021/09/28 02:12:22;;;;;;;7.68;3.53;;;12.10;99.90;;;;;;5052756;28;20040;-79
2021/09/28 02:14:49;;;;;;;11.30;2.92;;;12.10;99.90;;;;;;5052024;28;20629;-79
2021/09/28 02:17:15;;;;;;;6.78;2.72;;;12.20;99.90;;;;;;5052728;28;20036;-79
2021/09/28 02:19:41;;;;;;;5.80;2.58;;;12.20;99.90;;;;;;5052310;28;20036;-81
2021/09/28 02:22:07;;;;;;;6.35;3.40;;;12.20;99.90;;;;;;5052767;28;20036;-80
2021/09/28 02:24:33;;;;;;;7.40;2.70;;;12.30;99.90;;;;;;5051963;28;20041;-81
2021/09/28 02:26:59;;;;;;;3.90;2.67;;;12.20;99.90;;;;;;5052438;28;20032;-80
2021/09/28 02:29:26;;;;;;;8.82;3.00;;;12.20;99.90;;;;;;5055695;28;20041;-80
2021/09/28 02:31:52;;;;;;;7.35;2.50;;;12.20;99.90;;;;;;5051921;28;20025;-80
2021/09/28 02:34:18;;;;;;;5.03;2.60;;;12.20;99.90;;;;;;5052486;28;20553;-79
2021/09/28 02:36:44;;;;;;;5.78;2.47;;;12.20;99.90;;;;;;5052076;28;20462;-80
2021/09/28 02:39:10;;;;;;;6.93;2.83;;;12.30;99.90;;;;;;5034878;28;20029;-80
2021/09/28 02:41:37;;;;;;;8.05;2.80;;;12.30;99.90;;;;;;5051809;28;20033;-80
2021/09/28 02:44:05;;;;;;;3.97;2.10;;;12.30;99.90;;;;;;5035101;28;20033;-79
2021/09/28 02:46:32;;;;;;;4.80;2.05;;;12.30;99.90;;;;;;5052183;28;20033;-79
2021/09/28 02:48:59;;;;;;;2.08;1.45;;;12.30;99.90;;;;;;5052563;28;20489;-80
2021/09/28 02:51:25;;;;;;;6.78;2.40;;;12.30;99.90;;;;;;5052765;28;20069;-80
2021/09/28 02:53:51;;;;;;;5.18;2.03;;;12.20;99.90;;;;;;5033810;28;20115;-80
2021/09/28 02:56:17;;;;;;;5.22;2.35;;;12.20;99.90;;;;;;5052176;28;20029;-80
2021/09/28 02:58:44;;;;;;;4.57;1.55;;;12.10;99.90;;;;;;5051156;28;20037;-80
2021/09/28 03:01:10;;;;;;;5.80;2.35;;;12.10;99.90;;;;;;5052132;28;20033;-80
2021/09/28 03:03:36;;;;;;;4.10;2.30;;;12.00;99.90;;;;;;5035110;28;20048;-80
2021/09/28 03:06:02;;;;;;;5.43;2.47;;;12.00;99.90;;;;;;5047585;28;20202;-80
2021/09/28 03:08:30;;;;;;;3.75;1.83;;;11.90;99.90;;;;;;5050115;28;20033;-80
2021/09/28 03:10:57;;;;;;;6.10;2.05;;;11.90;99.90;;;;;;5052681;28;20029;-80
2021/09/28 03:13:23;;;;;;;3.80;1.60;;;11.80;99.90;;;;;;5051880;28;20045;-80
2021/09/28 03:15:49;;;;;;;10.80;2.55;;;11.80;99.90;;;;;;5051553;28;20016;-80
2021/09/28 03:18:16;;;;;;;7.03;2.55;;;11.80;99.90;;;;;;5051801;28;20036;-80
2021/09/28 03:20:42;;;;;;;3.78;1.90;;;11.80;99.90;;;;;;5056745;28;20043;-80
2021/09/28 03:23:08;;;;;;;3.53;2.20;;;11.80;99.90;;;;;;5053469;28;20037;-80
2021/09/28 03:25:35;;;;;;;4.78;2.15;;;11.90;99.90;;;;;;5051794;28;20056;-79
2021/09/28 03:28:03;;;;;;;6.35;2.50;;;11.90;99.90;;;;;;5052532;28;20032;-80
2021/09/28 03:30:29;;;;;;;4.10;1.70;;;11.80;99.90;;;;;;5051600;28;20037;-79
2021/09/28 03:32:55;;;;;;;3.78;1.92;;;11.80;99.90;;;;;;5051966;28;20033;-80
2021/09/28 03:35:22;;;;;;;6.57;2.28;;;11.80;99.90;;;;;;5054333;28;20025;-79
2021/09/28 03:37:52;;;;;;;5.47;1.85;;;11.90;99.90;;;;;;5054504;28;20045;-79
2021/09/28 03:40:19;;;;;;;11.98;2.70;;;11.90;99.90;;;;;;5056050;28;20463;-79
2021/09/28 03:42:47;;;;;;;8.60;2.33;;;11.90;99.90;;;;;;5055546;28;20048;-79
2021/09/28 03:45:13;;;;;;;4.95;2.60;;;11.90;99.90;;;;;;5064960;28;20075;-79
2021/09/28 03:47:39;;;;;;;4.45;2.33;;;11.90;99.90;;;;;;5079340;28;20035;-79
2021/09/28 03:50:06;;;;;;;3.97;2.17;;;11.90;99.90;;;;;;5066660;28;20028;-81
2021/09/28 03:52:34;;;;;;;5.97;2.58;;;11.90;99.90;;;;;;5073414;28;20458;-80
2021/09/28 03:55:00;;;;;;;4.20;2.63;;;11.80;99.90;;;;;;5070251;28;20049;-81
2021/09/28 03:57:27;;;;;;;3.47;2.00;;;11.80;99.90;;;;;;5055746;28;20040;-81
2021/09/28 03:59:53;;;;;;;5.90;2.75;;;11.70;99.90;;;;;;5037390;28;20509;-80
2021/09/28 04:02:20;;;;;;;3.88;2.08;;;11.70;99.90;;;;;;5056057;28;20021;-80
2021/09/28 04:04:46;;;;;;;6.15;2.75;;;11.70;99.90;;;;;;5056788;28;20036;-80
2021/09/28 04:07:12;;;;;;;4.55;2.55;;;11.70;99.90;;;;;;5038235;28;20038;-80
2021/09/28 04:09:38;;;;;;;5.15;2.80;;;11.70;99.90;;;;;;5054869;28;20040;-80
2021/09/28 04:12:06;;;;;;;9.95;2.50;;;11.60;99.90;;;;;;5055636;28;20021;-80
2021/09/28 04:14:32;;;;;;;5.22;3.15;;;11.50;99.90;;;;;;5054791;28;20037;-80
2021/09/28 04:16:59;;;;;;;5.82;2.53;;;11.40;99.90;;;;;;5054890;28;20036;-84
2021/09/28 04:19:25;;;;;;;8.32;2.65;;;11.40;99.90;;;;;;5054704;28;20052;-77
2021/09/28 04:21:52;;;;;;;5.10;2.17;;;11.40;99.90;;;;;;5054406;28;20031;-77
2021/09/28 04:24:19;;;;;;;4.00;1.95;;;11.20;99.90;;;;;;5054598;28;20355;-78
2021/09/28 04:26:46;;;;;;;5.78;2.55;;;11.10;99.90;;;;;;5061626;28;20033;-82
2021/09/28 04:29:12;;;;;;;4.32;2.28;;;11.10;99.90;;;;;;5044190;28;20040;-81
2021/09/28 04:31:38;;;;;;;6.05;2.25;;;11.00;99.90;;;;;;5067075;28;20033;-81
2021/09/28 04:34:04;;;;;;;9.10;2.53;;;11.10;99.90;;;;;;5056331;28;20458;-80
2021/09/28 04:36:30;;;;;;;5.72;2.58;;;11.10;99.90;;;;;;5066843;28;20032;-79
2021/09/28 04:38:57;;;;;;;4.70;2.45;;;11.10;99.90;;;;;;5054339;28;20037;-81
2021/09/28 04:41:23;;;;;;;5.22;3.28;;;11.10;99.90;;;;;;5057327;28;20478;-80
2021/09/28 04:43:49;;;;;;;8.38;4.78;;;11.10;99.90;;;;;;5053996;28;20044;-80
2021/09/28 04:46:16;;;;;;;10.52;4.60;;;11.20;99.90;;;;;;5060464;28;20052;-80
2021/09/28 04:48:44;;;;;;;8.48;5.22;;;11.30;99.90;;;;;;5053907;28;20025;-81
2021/09/28 04:51:11;;;;;;;10.30;4.95;;;11.40;99.90;;;;;;5046618;28;20036;-80
2021/09/28 04:53:37;;;;;;;6.03;4.50;;;11.40;99.90;;;;;;5047730;28;20068;-80
2021/09/28 04:56:03;;;;;;;5.97;4.45;;;11.40;99.90;;;;;;5054243;28;20029;-80
2021/09/28 04:58:29;;;;;;;9.70;3.78;;;11.40;99.90;;;;;;5053805;28;20497;-79
2021/09/28 05:00:56;;;;;;;7.28;3.88;;;11.40;99.90;;;;;;5053600;28;20044;-80
2021/09/28 05:03:22;;;;;;;4.93;3.00;;;11.40;99.90;;;;;;5057612;28;20033;-80
2021/09/28 05:05:49;;;;;;;4.60;2.70;;;11.30;99.90;;;;;;5055328;28;20029;-80
2021/09/28 05:08:15;;;;;;;3.10;2.20;;;11.20;99.90;;;;;;5053520;28;20040;-80
2021/09/28 05:10:41;;;;;;;4.93;2.90;;;11.10;99.90;;;;;;5053238;28;20029;-80
2021/09/28 05:13:08;;;;;;;3.95;2.65;;;11.00;99.90;;;;;;5054188;28;20032;-80
2021/09/28 05:15:34;;;;;;;8.02;3.63;;;11.00;99.90;;;;;;5053215;28;20040;-77
2021/09/28 05:18:00;;;;;;;15.85;4.50;;;11.00;99.90;;;;;;5054179;28;20025;-80
2021/09/28 05:20:26;;;;;;;8.95;4.32;;;11.00;99.90;;;;;;5053336;28;20036;-81
2021/09/28 05:22:53;;;;;;;10.20;4.78;;;11.00;99.90;;;;;;5053360;28;20036;-82
2021/09/28 05:25:19;;;;;;;6.00;5.20;;;11.10;99.90;;;;;;5053684;28;20028;-83
2021/09/28 05:27:45;;;;;;;6.10;4.88;;;11.20;99.90;;;;;;5053648;28;20049;-82
2021/09/28 05:30:12;;;;;;;6.45;5.40;;;11.20;99.90;;;;;;5052156;28;20051;-83
2021/09/28 05:32:38;;;;;;;6.72;5.07;;;11.20;99.90;;;;;;5054425;28;20048;-83
2021/09/28 05:35:05;;;;;;;7.05;4.85;;;11.30;99.90;;;;;;5036898;28;20067;-83
2021/09/28 05:37:31;;;;;;;8.13;5.35;;;11.20;99.90;;;;;;5053840;28;20032;-83
2021/09/28 05:39:57;;;;;;;7.72;4.38;;;11.20;99.90;;;;;;5053145;28;20040;-83
2021/09/28 05:42:23;;;;;;;5.40;3.97;;;11.30;99.90;;;;;;5044693;28;20033;-83
2021/09/28 05:44:49;;;;;;;7.75;4.00;;;11.30;99.90;;;;;;5052796;28;20045;-83
2021/09/28 05:47:15;;;;;;;7.63;3.65;;;11.40;99.90;;;;;;5052870;28;20036;-84
2021/09/28 05:49:42;;;;;;;5.68;3.40;;;11.50;99.90;;;;;;5043758;28;20044;-83
2021/09/28 05:52:12;;;;;;;5.82;3.85;;;11.40;99.90;;;;;;5044174;28;20041;-83
2021/09/28 05:54:49;;;;;;;8.95;4.13;;;11.40;99.90;;;;;;5073489;28;20072;-83
2021/09/28 05:57:16;;;;;;;6.15;3.92;;;11.50;99.90;;;;;;5043749;28;20052;-83
2021/09/28 05:59:43;;;;;;;5.63;4.90;;;11.50;99.90;;;;;;5055311;28;20041;-83
2021/09/28 06:02:10;;;;;;;5.53;3.97;;;11.60;99.90;;;;;;5062756;28;20037;-84
2021/09/28 06:04:37;;;;;;;5.07;3.78;;;11.60;99.90;;;;;;5058263;28;20495;-80
2021/09/28 06:07:04;;;;;;;4.97;4.35;;;11.60;99.90;;;;;;5054240;28;20043;-85
2021/09/28 06:09:35;;;;;;;5.07;3.95;;;11.70;99.90;;;;;;5054064;28;20052;-83
2021/09/28 06:12:07;;;;;;;5.32;4.25;;;11.70;99.90;;;;;;5018355;28;20041;-83
2021/09/28 06:14:34;;;;;;;7.25;4.32;;;11.70;99.90;;;;;;5048098;28;20049;-79
2021/09/28 06:17:01;;;;;;;6.70;3.80;;;11.80;99.90;;;;;;5052003;28;20033;-83
2021/09/28 06:19:28;;;;;;;3.97;3.65;;;11.90;99.90;;;;;;5056655;28;20044;-82
2021/09/28 06:21:55;;;;;;;6.65;4.00;;;11.90;99.90;;;;;;5051102;28;20025;-83
2021/09/28 06:24:22;;;;;;;4.53;2.85;;;12.00;99.90;;;;;;5052330;28;20040;-80
2021/09/28 06:26:49;;;;;;;5.05;3.47;;;12.00;99.90;;;;;;5050662;28;20033;-81
2021/09/28 06:29:15;;;;;;;4.43;3.60;;;12.10;99.90;;;;;;5053286;28;20039;-79
2021/09/28 06:31:43;;;;;;;8.88;4.40;;;12.50;99.90;;;;;;5051829;28;20028;-80
2021/09/28 06:34:10;;;;;;;5.03;3.58;;;12.90;99.90;;;;;;5035069;28;20037;-79
2021/09/28 06:36:37;;;;;;;5.32;2.63;;;13.20;99.90;;;;;;5052183;28;20033;-79
2021/09/28 06:39:04;;;;;;;4.68;2.78;;;13.60;99.90;;;;;;5052547;28;20037;-78
2021/09/28 06:41:30;;;;;;;4.28;2.47;;;14.30;99.90;;;;;;5052414;28;20029;-79
2021/09/28 06:43:59;;;;;;;11.10;2.08;;;14.40;99.90;;;;;;5050577;28;20053;-80
2021/09/28 06:46:26;;;;;;;2.83;2.15;;;14.50;99.90;;;;;;5055309;28;20119;-79
2021/09/28 06:48:52;;;;;;;2.25;1.50;;;14.70;99.90;;;;;;5052393;28;20037;-79
2021/09/28 06:51:18;;;;;;;4.57;1.73;;;14.60;99.90;;;;;;5052197;28;20095;-79
2021/09/28 06:53:45;;;;;;;2.70;2.17;;;14.60;99.90;;;;;;5052505;28;20040;-78
2021/09/28 06:56:12;;;;;;;4.55;2.00;;;14.20;99.90;;;;;;5070768;28;20032;-78
2021/09/28 06:58:39;;;;;;;5.25;2.55;;;14.00;99.90;;;;;;5051856;28;20029;-79
2021/09/28 07:01:05;;;;;;;2.65;1.88;;;14.20;99.90;;;;;;5052051;28;20045;-79
2021/09/28 07:03:34;;;;;;;4.80;2.50;;;14.10;99.90;;;;;;5052863;28;20382;-80
2021/09/28 07:06:01;;;;;;;3.55;1.77;;;14.10;99.90;;;;;;5052154;28;20083;-79
2021/09/28 07:08:28;;;;;;;3.17;2.20;;;14.20;99.90;;;;;;5052810;28;20033;-80
2021/09/28 07:10:54;;;;;;;6.35;2.05;;;14.20;99.90;;;;;;5056341;28;20041;-79
2021/09/28 07:13:20;;;;;;;4.18;2.10;;;14.30;99.90;;;;;;5056603;28;20041;-80
2021/09/28 07:15:46;;;;;;;2.35;1.80;;;14.50;99.90;;;;;;5056120;28;20575;-80
2021/09/28 07:18:13;;;;;;;5.78;2.40;;;14.60;99.90;;;;;;5067744;28;20033;-79
2021/09/28 07:20:39;;;;;;;3.85;2.42;;;14.80;99.90;;;;;;5065895;28;20041;-79
2021/09/28 07:23:06;;;;;;;2.13;1.67;;;15.20;99.90;;;;;;5056677;28;20040;-79
2021/09/28 07:25:32;;;;;;;2.67;2.08;;;15.20;99.90;;;;;;5055784;28;20032;-78
2021/09/28 07:28:00;;;;;;;3.65;2.25;;;15.40;99.90;;;;;;5055364;28;20346;-79
2021/09/28 07:30:28;;;;;;;3.20;1.95;;;15.70;99.90;;;;;;5055962;28;20048;-80
2021/09/28 07:32:55;;;;;;;3.58;1.88;;;15.80;99.90;;;;;;5055493;28;20064;-79
2021/09/28 07:35:22;;;;;;;3.60;2.00;;;16.10;99.90;;;;;;5055930;28;20025;-80
2021/09/28 07:37:48;;;;;;;3.60;1.90;;;16.50;99.90;;;;;;5057112;28;20036;-79
2021/09/28 07:40:16;;;;;;;2.78;1.42;;;16.00;96.20;;;;;;5055759;28;20052;-81
2021/09/28 07:42:43;;;;;;;10.68;2.58;;;16.00;97.60;;;;;;5055181;28;20040;-79
2021/09/28 07:45:10;;;;;;;9.45;2.42;;;15.80;99.90;;;;;;5064303;28;20052;-80
2021/09/28 07:47:36;;;;;;;6.13;2.75;;;15.70;98.10;;;;;;5056971;28;20033;-78
2021/09/28 07:50:03;;;;;;;5.10;3.67;;;15.70;98.60;;;;;;5055624;28;20033;-78
2021/09/28 07:52:29;;;;;;;4.32;2.45;;;15.70;98.10;;;;;;5055113;28;20029;-79
2021/09/28 07:54:56;;;;;;;4.07;3.20;;;15.60;98.60;;;;;;5053697;28;20040;-79
2021/09/28 07:57:23;;;;;;;4.82;3.65;;;16.10;98.90;;;;;;5055389;28;20363;-80
2021/09/28 07:59:51;;;;;;;4.63;2.97;;;16.30;96.60;;;;;;5054610;28;20088;-79
2021/09/28 08:02:20;;;;;;;5.15;3.20;;;16.30;95.20;;;;;;5055158;28;20490;-79
2021/09/28 08:04:47;;;;;;;6.95;2.80;;;15.80;94.90;;;;;;5055256;28;20029;-78
2021/09/28 08:07:15;;;;;;;3.60;2.72;;;15.70;97.00;;;;;;5021075;28;20033;-80
2021/09/28 08:09:41;;;;;;;6.82;3.22;;;16.20;94.30;;;;;;5055330;28;20036;-79
2021/09/28 08:12:08;;;;;;;5.70;3.33;;;16.40;94.00;;;;;;5055311;28;20052;-79
2021/09/28 08:14:35;;;;;;;6.47;2.42;;;16.20;94.50;;;;;;5055061;28;20033;-79
2021/09/28 08:17:02;;;;;;;3.78;2.40;;;16.20;93.90;;;;;;5038100;28;20032;-79
2021/09/28 08:19:28;;;;;;;3.33;2.40;;;16.30;94.20;;;;;;5054149;28;20052;-80
2021/09/28 08:21:54;;;;;;;4.82;2.88;;;16.50;92.20;;;;;;5053957;28;20045;-79
2021/09/28 08:24:21;;;;;;;4.80;2.90;;;16.60;92.80;;;;;;5054962;28;20459;-80
2021/09/28 08:29:32;;;;;;;5.13;2.88;;;16.00;92.50;;;;;;5055583;28;20037;-78
2021/09/28 08:31:58;;;;;;;7.28;3.35;;;15.60;93.30;;;;;;5054733;28;20040;-79
2021/09/28 08:34:24;;;;;;;4.30;2.45;;;15.90;93.30;;;;;;5054831;28;20045;-78
2021/09/28 08:36:51;;;;;;;3.90;2.22;;;16.10;91.70;;;;;;5055270;28;20044;-80
2021/09/28 08:39:17;;;;;;;4.85;2.45;;;16.40;91.60;;;;;;5054817;28;20032;-79
2021/09/28 08:41:46;;;;;;;4.18;2.25;;;17.10;88.70;;;;;;5054921;28;20466;-79
2021/09/28 08:44:13;;;;;;;3.42;2.28;;;17.70;86.10;;;;;;5053953;28;20459;-79
2021/09/28 08:46:40;;;;;;;2.45;2.25;;;17.50;85.80;;;;;;5051600;28;20045;-79
2021/09/28 08:49:06;;;;;;;5.15;2.38;;;18.10;90.10;;;;;;5055099;28;20033;-80
2021/09/28 08:51:32;;;;;;;2.90;2.20;;;19.20;82.20;;;;;;5054237;28;20040;-80
2021/09/28 08:53:59;;;;;;;4.10;2.33;;;19.30;79.40;;;;;;5053611;28;20053;-79
2021/09/28 08:56:27;;;;;;;3.72;2.33;;;19.20;79.90;;;;;;5055603;28;20039;-81
2021/09/28 08:58:59;;;;;;;8.68;2.97;;;18.70;79.60;;;;;;5054221;28;20056;-80
2021/09/28 09:01:28;;;;;;;5.70;2.17;;;17.80;81.60;;;;;;5054116;28;20048;-80
2021/09/28 09:03:54;;;;;;;3.72;1.83;;;17.90;81.10;;;;;;5053915;28;20390;-80
2021/09/28 09:06:33;;;;;;;2.22;1.48;;;17.50;82.50;;;;;;5054840;28;20029;-80
2021/09/28 09:09:01;;;;;;;7.80;1.80;;;17.00;84.10;;;;;;5061343;28;20045;-79
2021/09/28 09:11:35;;;;;;;4.53;2.22;;;17.50;83.40;;;;;;5058522;28;20029;-79
2021/09/28 09:14:12;;;;;;;3.90;2.17;;;17.80;85.50;;;;;;5055486;28;20029;-80
2021/09/28 09:16:41;;;;;;;7.07;1.83;;;18.70;78.40;;;;;;5053935;28;20037;-80
2021/09/28 09:19:17;;;;;;;4.05;1.15;;;18.70;78.90;;;;;;5055247;28;20037;-81
2021/09/28 09:21:51;;;;;;;5.03;1.75;;;18.60;76.80;;;;;;5064907;28;20478;-82
2021/09/28 09:24:43;;;;;;;7.68;1.50;;;18.10;78.10;;;;;;5054216;28;20029;-81
2021/09/28 09:27:15;;;;;;;3.78;1.48;;;17.90;77.20;;;;;;5052107;28;20486;-81
2021/09/28 09:29:42;;;;;;;6.43;2.08;;;18.50;77.70;;;;;;5053204;28;20033;-81
2021/09/28 09:32:11;;;;;;;2.35;1.23;;;18.00;76.40;;;;;;5053573;28;20100;-80
2021/09/28 09:34:37;;;;;;;4.18;1.10;;;18.30;78.00;;;;;;5053197;28;20037;-80
2021/09/28 09:37:06;;;;;;;4.03;1.40;;;18.60;74.00;;;;;;5054094;28;20029;-81
2021/09/28 09:39:55;;;;;;;3.85;1.58;;;18.60;73.80;;;;;;5053920;28;20040;-86
2021/09/28 09:42:23;;;;;;;3.55;1.90;;;17.60;76.70;;;;;;5035500;28;20378;-85
2021/09/28 09:44:50;;;;;;;2.22;1.20;;;16.90;78.60;;;;;;5053350;28;20052;-81
2021/09/28 09:47:33;;;;;;;3.38;1.30;;;16.60;78.40;;;;;;5056100;28;20037;-80
2021/09/28 09:50:32;;;;;;;4.05;1.73;;;17.00;79.40;;;;;;5050280;28;20052;-79
2021/09/28 09:52:59;;;;;;;3.58;1.45;;;17.80;76.30;;;;;;5007598;28;20056;-78
2021/09/28 09:55:27;;;;;;;4.60;1.42;;;18.20;75.90;;;;;;5062181;28;20619;-84
2021/09/28 09:57:54;;;;;;;3.05;1.58;;;17.70;74.10;;;;;;5035794;28;20040;-81
2021/09/28 10:00:24;;;;;;;5.13;2.42;;;17.20;75.60;;;;;;5052890;28;20375;-80
2021/09/28 10:02:50;;;;;;;4.60;1.60;;;16.70;75.70;;;;;;5052822;28;20029;-80
2021/09/28 10:05:17;;;;;;;4.20;1.75;;;16.90;77.90;;;;;;5065317;28;20036;-80
2021/09/28 10:07:49;;;;;;;4.60;2.22;;;17.10;76.80;;;;;;5067375;28;20032;-83
2021/09/28 10:10:19;;;;;;;3.85;1.88;;;17.00;75.70;;;;;;5057651;28;20133;-82
2021/09/28 10:12:45;;;;;;;3.65;2.05;;;17.10;76.60;;;;;;5056254;28;20036;-82
2021/09/28 10:15:17;;;;;;;3.45;1.80;;;17.50;76.40;;;;;;5059076;28;20033;-83
2021/09/28 10:17:46;;;;;;;4.38;1.95;;;17.40;74.90;;;;;;5011121;28;20045;-81
2021/09/28 10:20:21;;;;;;;15.90;2.55;;;17.50;74.90;;;;;;5049886;28;20040;-81
2021/09/28 10:22:52;;;;;;;3.05;1.60;;;17.70;75.50;;;;;;5053170;28;20028;-80
2021/09/28 10:25:18;;;;;;;3.22;1.38;;;18.00;73.10;;;;;;5052983;28;20352;-83
2021/09/28 10:27:46;;;;;;;2.85;1.40;;;17.50;75.70;;;;;;5053841;28;20109;-82
2021/09/28 10:30:32;;;;;;;2.95;1.42;;;17.40;76.50;;;;;;5054953;28;20029;-81
2021/09/28 10:33:22;;;;;;;5.75;1.38;;;17.80;75.00;;;;;;5055160;28;20033;-80
2021/09/28 10:36:00;;;;;;;4.47;1.77;;;17.90;74.50;;;;;;5071607;28;20021;-82
2021/09/28 10:38:42;;;;;;;3.83;1.67;;;17.80;74.30;;;;;;5063218;28;20033;-83
2021/09/28 10:41:28;;;;;;;3.75;1.33;;;17.80;68.50;;;;;;5054622;28;20486;-82
2021/09/28 10:43:55;;;;;;;9.63;1.52;;;17.90;71.00;;;;;;5032926;28;20037;-82
2021/09/28 10:46:40;;;;;;;2.90;1.15;;;18.10;67.70;;;;;;5052102;28;20410;-82
2021/09/28 10:49:22;;;;;;;1.80;0.98;;;18.20;67.60;;;;;;5052221;28;20041;-80
2021/09/28 10:51:49;;;;;;;6.20;1.73;;;17.80;66.80;;;;;;5054723;28;20374;-81
2021/09/28 10:54:15;;;;;;;2.33;1.00;;;17.50;67.30;;;;;;5052370;28;20037;-79
2021/09/28 10:56:51;;;;;;;3.90;2.08;;;17.10;68.50;;;;;;5052240;28;20028;-83
2021/09/28 10:59:17;;;;;;;2.10;1.17;;;17.00;68.40;;;;;;5052267;28;20041;-84
2021/09/28 11:02:07;;;;;;;3.22;1.30;;;17.00;69.80;;;;;;5053516;28;20057;-83
2021/09/28 11:04:33;;;;;;;8.60;1.50;;;17.30;67.20;;;;;;5057981;28;20041;-83
2021/09/28 11:07:08;;;;;;;3.88;1.20;;;17.90;65.10;;;;;;5052654;28;20466;-81
2021/09/28 11:09:46;;;;;;;3.67;1.58;;;17.90;62.50;;;;;;5052535;28;20037;-81
2021/09/28 11:12:13;;;;;;;3.83;1.10;;;17.60;62.60;;;;;;5067047;28;20041;-82
2021/09/28 11:14:40;;;;;;;5.90;1.10;;;17.60;64.40;;;;;;5045103;28;20041;-83
2021/09/28 11:17:15;;;;;;;2.90;1.00;;;17.70;62.00;;;;;;5053179;28;20135;-82
2021/09/28 11:19:42;;;;;;;3.20;1.00;;;17.90;64.40;;;;;;5052844;28;20458;-82
2021/09/28 11:22:15;;;;;;;3.38;1.20;;;17.90;63.50;;;;;;5054030;28;20045;-82
2021/09/28 11:24:42;;;;;;;2.22;1.10;;;17.90;64.80;;;;;;5053542;28;20033;-84
2021/09/28 11:27:10;;;;;;;3.03;1.00;;;17.80;62.30;;;;;;5054750;28;20029;-82
2021/09/28 11:29:40;;;;;;;5.68;1.30;;;17.90;63.30;;;;;;5064622;28;20036;-83
2021/09/28 11:32:08;;;;;;;2.55;1.23;;;18.10;62.80;;;;;;5069111;28;20033;-83
2021/09/28 11:34:38;;;;;;;3.15;1.13;;;18.40;60.40;;;;;;5058445;28;20046;-84
2021/09/28 11:37:06;;;;;;;4.45;1.00;;;18.60;61.80;;;;;;5067916;28;20033;-83
2021/09/28 11:39:38;;;;;;;2.70;1.23;;;18.90;61.50;;;;;;5052395;28;20044;-79
2021/09/28 11:42:05;;;;;;;2.92;0.95;;;18.70;61.20;;;;;;5066668;28;20037;-82
2021/09/28 11:44:41;;;;;;;4.00;1.42;;;18.60;62.40;;;;;;5062086;28;20056;-83
2021/09/28 11:47:26;;;;;;;4.47;1.40;;;18.70;62.70;;;;;;5041655;28;20485;-83
2021/09/28 11:49:56;;;;;;;3.70;1.10;;;19.00;62.00;;;;;;5058118;28;20021;-82
2021/09/28 11:52:23;;;;;;;6.33;1.33;;;18.90;61.30;;;;;;5057736;28;20029;-80
2021/09/28 11:54:51;;;;;;;2.15;0.93;;;18.80;62.70;;;;;;5055004;28;20033;-82
2021/09/28 11:57:19;;;;;;;2.28;0.93;;;18.60;63.60;;;;;;5040729;28;20044;-83
2021/09/28 11:59:46;;;;;;;2.88;1.17;;;18.40;64.40;;;;;;5060145;28;20031;-80
2021/09/28 12:02:14;;;;;;;2.60;0.98;;;18.40;62.60;;;;;;5054367;28;20037;-83
2021/09/28 12:10:19;;;;;;;5.68;1.10;;;18.40;62.00;;;;;;5065455;28;20413;-83
2021/09/28 12:12:45;;;;;;;3.63;1.15;;;18.40;63.60;;;;;;5055640;28;20051;-81
2021/09/28 12:15:13;;;;;;;1.65;0.70;;;18.40;61.30;;;;;;5055546;28;20043;-81
2021/09/28 12:17:42;;;;;;;1.95;0.95;;;18.40;62.10;;;;;;5038027;28;20040;-82
2021/09/28 12:20:11;;;;;;;3.00;0.90;;;18.30;61.80;;;;;;5055034;28;20025;-83
2021/09/28 12:22:57;;;;;;;3.40;0.90;;;18.30;61.10;;;;;;5055312;28;20033;-84
2021/09/28 12:25:31;;;;;;;4.65;0.98;;;18.60;61.50;;;;;;5054695;28;20068;-84
2021/09/28 12:28:01;;;;;;;2.55;0.98;;;18.60;60.10;;;;;;5056426;28;20044;-81
2021/09/28 12:30:33;;;;;;;3.15;1.13;;;18.50;59.50;;;;;;5063883;28;20032;-83
2021/09/28 12:32:59;;;;;;;4.68;0.60;;;18.20;60.10;;;;;;5055642;28;20025;-84
2021/09/28 12:35:36;;;;;;;2.05;0.85;;;18.20;60.00;;;;;;5058059;28;20045;-84
2021/09/28 12:38:05;;;;;;;2.70;0.60;;;18.10;60.60;;;;;;5054776;28;20474;-84
2021/09/28 12:40:34;;;;;;;2.05;1.13;;;18.20;58.80;;;;;;5054689;28;20048;-84
2021/09/28 12:43:23;;;;;;;2.75;1.02;;;18.20;59.50;;;;;;5054082;28;20029;-81
2021/09/28 12:45:58;;;;;;;1.13;0.70;;;18.10;59.90;;;;;;5054045;28;20056;-82
2021/09/28 12:48:40;;;;;;;2.17;0.93;;;18.10;60.30;;;;;;5057736;28;20040;-83
2021/09/28 12:51:18;;;;;;;2.22;0.90;;;18.20;60.60;;;;;;5054234;28;20056;-83
2021/09/28 12:53:46;;;;;;;2.42;0.95;;;18.60;59.40;;;;;;5054197;28;20031;-83
2021/09/28 12:56:12;;;;;;;2.97;0.77;;;18.80;58.90;;;;;;5054502;28;20430;-84
2021/09/28 12:58:39;;;;;;;2.25;0.95;;;18.90;58.30;;;;;;5054132;28;20033;-84